sensor_id;sensor_type;location;lat;lon;timestamp;temperature;humidity
31765;DHT22;18338;53.240;8.798;2024-02-15T00:00:54;12.30;99.90
31765;DHT22;18338;53.240;8.798;2024-02-15T00:03:21;12.20;99.90
31765;DHT22;18338;53.240;8.798;2024-02-15T00:05:48;12.20;99.90
31765;DHT22;18338;53.240;8.798;2024-02-15T00:08:15;12.20;99.90
31765;DHT22;18338;53.240;8.798;2024-02-15T00:10:42;12.20;99.90
31765;DHT22;18338;53.240;8.798;2024-02-15T00:13:08;12.20;99.90
31765;DHT22;18338;53.240;8.798;2024-02-15T00:15:35;12.20;99.90
31765;DHT22;18338;53.240;8.798;2024-02-15T00:18:03;12.20;99.90
31765;DHT22;18338;53.240;8.798;2024-02-15T00:20:31;12.20;99.90
31765;DHT22;18338;53.240;8.798;2024-02-15T00:23:00;12.20;99.90
31765;DHT22;18338;53.240;8.798;2024-02-15T00:25:27;12.20;99.90
31765;DHT22;18338;53.240;8.798;2024-02-15T00:27:54;12.30;99.90
31765;DHT22;18338;53.240;8.798;2024-02-15T00:30:21;12.30;99.90
31765;DHT22;18338;53.240;8.798;2024-02-15T00:32:48;12.30;99.90
31765;DHT22;18338;53.240;8.798;2024-02-15T00:35:16;12.30;99.90
31765;DHT22;18338;53.240;8.798;2024-02-15T00:37:43;12.20;99.90
31765;DHT22;18338;53.240;8.798;2024-02-15T00:40:11;12.20;99.90
31765;DHT22;18338;53.240;8.798;2024-02-15T00:42:38;12.20;99.90
31765;DHT22;18338;53.240;8.798;2024-02-15T00:45:06;12.20;99.90
31765;DHT22;18338;53.240;8.798;2024-02-15T00:47:35;12.20;99.90
31765;DHT22;18338;53.240;8.798;2024-02-15T00:50:02;12.20;99.90
31765;DHT22;18338;53.240;8.798;2024-02-15T00:52:30;12.20;99.90
31765;DHT22;18338;53.240;8.798;2024-02-15T00:54:57;12.20;99.90
31765;DHT22;18338;53.240;8.798;2024-02-15T00:57:24;12.20;99.90
31765;DHT22;18338;53.240;8.798;2024-02-15T00:59:50;12.20;99.90
31765;DHT22;18338;53.240;8.798;2024-02-15T01:02:18;12.30;99.90
31765;DHT22;18338;53.240;8.798;2024-02-15T01:04:45;12.30;99.90
31765;DHT22;18338;53.240;8.798;2024-02-15T01:07:12;12.20;99.90
31765;DHT22;18338;53.240;8.798;2024-02-15T01:09:40;12.20;99.90
31765;DHT22;18338;53.240;8.798;2024-02-15T01:12:06;12.20;99.90
31765;DHT22;18338;53.240;8.798;2024-02-15T01:14:33;12.30;99.90
31765;DHT22;18338;53.240;8.798;2024-02-15T01:17:01;12.30;99.90
31765;DHT22;18338;53.240;8.798;2024-02-15T01:19:28;12.30;99.90
31765;DHT22;18338;53.240;8.798;2024-02-15T01:21:55;12.30;99.90
31765;DHT22;18338;53.240;8.798;2024-02-15T01:24:22;12.30;99.90
31765;DHT22;18338;53.240;8.798;2024-02-15T01:26:49;12.30;99.90
31765;DHT22;18338;53.240;8.798;2024-02-15T01:29:16;12.30;99.90
31765;DHT22;18338;53.240;8.798;2024-02-15T01:31:42;12.30;99.90
31765;DHT22;18338;53.240;8.798;2024-02-15T01:34:10;12.30;99.90
31765;DHT22;18338;53.240;8.798;2024-02-15T01:36:37;12.30;99.90
31765;DHT22;18338;53.240;8.798;2024-02-15T01:39:04;12.30;99.90
31765;DHT22;18338;53.240;8.798;2024-02-15T01:41:30;12.30;99.90
31765;DHT22;18338;53.240;8.798;2024-02-15T01:43:58;12.30;99.90
31765;DHT22;18338;53.240;8.798;2024-02-15T01:46:25;12.30;99.90
31765;DHT22;18338;53.240;8.798;2024-02-15T01:48:52;12.30;99.90
31765;DHT22;18338;53.240;8.798;2024-02-15T01:51:19;12.40;99.90
31765;DHT22;18338;53.240;8.798;2024-02-15T01:53:46;12.40;99.90
31765;DHT22;18338;53.240;8.798;2024-02-15T01:56:14;12.30;99.90
31765;DHT22;18338;53.240;8.798;2024-02-15T01:58:41;12.40;99.90
31765;DHT22;18338;53.240;8.798;2024-02-15T02:01:09;12.40;99.90
31765;DHT22;18338;53.240;8.798;2024-02-15T02:03:39;12.40;99.90
31765;DHT22;18338;53.240;8.798;2024-02-15T02:06:06;12.40;99.90
31765;DHT22;18338;53.240;8.798;2024-02-15T02:08:33;12.40;99.90
31765;DHT22;18338;53.240;8.798;2024-02-15T02:11:00;12.40;99.90
31765;DHT22;18338;53.240;8.798;2024-02-15T02:13:28;12.40;99.90
31765;DHT22;18338;53.240;8.798;2024-02-15T02:15:57;12.40;99.90
31765;DHT22;18338;53.240;8.798;2024-02-15T02:18:23;12.40;99.90
31765;DHT22;18338;53.240;8.798;2024-02-15T02:20:51;12.40;99.90
31765;DHT22;18338;53.240;8.798;2024-02-15T02:23:20;12.40;99.90
31765;DHT22;18338;53.240;8.798;2024-02-15T02:25:49;12.40;99.90
31765;DHT22;18338;53.240;8.798;2024-02-15T02:28:16;12.40;99.90
31765;DHT22;18338;53.240;8.798;2024-02-15T02:30:43;12.40;99.90
31765;DHT22;18338;53.240;8.798;2024-02-15T02:33:12;12.40;99.90
31765;DHT22;18338;53.240;8.798;2024-02-15T02:35:47;12.50;99.90
31765;DHT22;18338;53.240;8.798;2024-02-15T02:38:15;12.40;99.90
31765;DHT22;18338;53.240;8.798;2024-02-15T02:40:41;12.40;99.90
31765;DHT22;18338;53.240;8.798;2024-02-15T02:43:08;12.40;99.90
31765;DHT22;18338;53.240;8.798;2024-02-15T02:45:36;12.40;99.90
31765;DHT22;18338;53.240;8.798;2024-02-15T02:48:04;12.40;99.90
31765;DHT22;18338;53.240;8.798;2024-02-15T02:50:31;12.40;99.90
31765;DHT22;18338;53.240;8.798;2024-02-15T02:52:58;12.40;99.90
31765;DHT22;18338;53.240;8.798;2024-02-15T02:55:26;12.40;99.90
31765;DHT22;18338;53.240;8.798;2024-02-15T02:57:54;12.40;99.90
31765;DHT22;18338;53.240;8.798;2024-02-15T03:00:22;12.40;99.90
31765;DHT22;18338;53.240;8.798;2024-02-15T03:02:49;12.40;99.90
31765;DHT22;18338;53.240;8.798;2024-02-15T03:05:16;12.40;99.90
31765;DHT22;18338;53.240;8.798;2024-02-15T03:07:43;12.40;99.90
31765;DHT22;18338;53.240;8.798;2024-02-15T03:10:11;12.40;99.90
31765;DHT22;18338;53.240;8.798;2024-02-15T03:12:41;12.40;99.90
31765;DHT22;18338;53.240;8.798;2024-02-15T03:15:14;12.40;99.90
31765;DHT22;18338;53.240;8.798;2024-02-15T03:17:43;12.40;99.90
31765;DHT22;18338;53.240;8.798;2024-02-15T03:20:11;12.40;99.90
31765;DHT22;18338;53.240;8.798;2024-02-15T03:22:54;12.40;99.90
31765;DHT22;18338;53.240;8.798;2024-02-15T03:25:21;12.40;99.90
31765;DHT22;18338;53.240;8.798;2024-02-15T03:27:55;12.40;99.90
31765;DHT22;18338;53.240;8.798;2024-02-15T03:30:25;12.40;99.90
31765;DHT22;18338;53.240;8.798;2024-02-15T03:32:53;12.40;99.90
31765;DHT22;18338;53.240;8.798;2024-02-15T03:35:23;12.40;99.90
31765;DHT22;18338;53.240;8.798;2024-02-15T03:37:51;12.40;99.90
31765;DHT22;18338;53.240;8.798;2024-02-15T03:40:19;12.30;99.90
31765;DHT22;18338;53.240;8.798;2024-02-15T03:42:46;12.30;99.90
31765;DHT22;18338;53.240;8.798;2024-02-15T03:45:13;12.30;99.90
31765;DHT22;18338;53.240;8.798;2024-02-15T03:47:40;12.30;99.90
31765;DHT22;18338;53.240;8.798;2024-02-15T03:50:08;12.30;99.90
31765;DHT22;18338;53.240;8.798;2024-02-15T03:52:38;12.30;99.90
31765;DHT22;18338;53.240;8.798;2024-02-15T03:55:06;12.30;99.90
31765;DHT22;18338;53.240;8.798;2024-02-15T03:57:35;12.30;99.90
31765;DHT22;18338;53.240;8.798;2024-02-15T04:00:02;12.30;99.90
31765;DHT22;18338;53.240;8.798;2024-02-15T04:02:31;12.30;99.90
31765;DHT22;18338;53.240;8.798;2024-02-15T04:04:57;12.30;99.90
31765;DHT22;18338;53.240;8.798;2024-02-15T04:07:24;12.30;99.90
31765;DHT22;18338;53.240;8.798;2024-02-15T04:09:53;12.30;99.90
31765;DHT22;18338;53.240;8.798;2024-02-15T04:12:20;12.30;99.90
31765;DHT22;18338;53.240;8.798;2024-02-15T04:14:48;12.30;99.90
31765;DHT22;18338;53.240;8.798;2024-02-15T04:17:16;12.30;99.90
31765;DHT22;18338;53.240;8.798;2024-02-15T04:19:47;12.30;99.90
31765;DHT22;18338;53.240;8.798;2024-02-15T04:22:14;12.30;99.90
31765;DHT22;18338;53.240;8.798;2024-02-15T04:24:43;12.30;99.90
31765;DHT22;18338;53.240;8.798;2024-02-15T04:27:12;12.30;99.90
31765;DHT22;18338;53.240;8.798;2024-02-15T04:29:41;12.30;99.90
31765;DHT22;18338;53.240;8.798;2024-02-15T04:32:11;12.30;99.90
31765;DHT22;18338;53.240;8.798;2024-02-15T04:34:42;12.30;99.90
31765;DHT22;18338;53.240;8.798;2024-02-15T04:37:08;12.20;99.90
31765;DHT22;18338;53.240;8.798;2024-02-15T04:39:38;12.20;99.90
31765;DHT22;18338;53.240;8.798;2024-02-15T04:42:05;12.20;99.90
31765;DHT22;18338;53.240;8.798;2024-02-15T04:44:34;12.20;99.90
31765;DHT22;18338;53.240;8.798;2024-02-15T04:47:02;12.20;99.90
31765;DHT22;18338;53.240;8.798;2024-02-15T04:49:30;12.20;99.90
31765;DHT22;18338;53.240;8.798;2024-02-15T04:51:57;12.10;99.90
31765;DHT22;18338;53.240;8.798;2024-02-15T04:54:27;12.10;99.90
31765;DHT22;18338;53.240;8.798;2024-02-15T04:56:53;12.10;99.90
31765;DHT22;18338;53.240;8.798;2024-02-15T04:59:21;12.10;99.90
31765;DHT22;18338;53.240;8.798;2024-02-15T05:01:52;12.10;99.90
31765;DHT22;18338;53.240;8.798;2024-02-15T05:04:20;12.10;99.90
31765;DHT22;18338;53.240;8.798;2024-02-15T05:06:46;12.10;99.90
31765;DHT22;18338;53.240;8.798;2024-02-15T05:09:13;12.10;99.90
31765;DHT22;18338;53.240;8.798;2024-02-15T05:11:40;12.10;99.90
31765;DHT22;18338;53.240;8.798;2024-02-15T05:14:08;12.00;99.90
31765;DHT22;18338;53.240;8.798;2024-02-15T05:16:37;12.10;99.90
31765;DHT22;18338;53.240;8.798;2024-02-15T05:19:09;12.10;99.90
31765;DHT22;18338;53.240;8.798;2024-02-15T05:21:38;12.10;99.90
31765;DHT22;18338;53.240;8.798;2024-02-15T05:24:05;12.00;99.90
31765;DHT22;18338;53.240;8.798;2024-02-15T05:26:32;12.00;99.90
31765;DHT22;18338;53.240;8.798;2024-02-15T05:28:59;12.10;99.90
31765;DHT22;18338;53.240;8.798;2024-02-15T05:31:26;12.00;99.90
31765;DHT22;18338;53.240;8.798;2024-02-15T05:33:53;12.00;99.90
31765;DHT22;18338;53.240;8.798;2024-02-15T05:36:22;12.00;99.90
31765;DHT22;18338;53.240;8.798;2024-02-15T05:38:52;12.00;99.90
31765;DHT22;18338;53.240;8.798;2024-02-15T05:41:20;12.00;99.90
31765;DHT22;18338;53.240;8.798;2024-02-15T05:43:47;12.00;99.90
31765;DHT22;18338;53.240;8.798;2024-02-15T05:46:20;11.90;99.90
31765;DHT22;18338;53.240;8.798;2024-02-15T05:48:50;11.90;99.90
31765;DHT22;18338;53.240;8.798;2024-02-15T05:51:22;11.90;99.90
31765;DHT22;18338;53.240;8.798;2024-02-15T05:59:01;11.90;99.90
31765;DHT22;18338;53.240;8.798;2024-02-15T06:01:42;11.90;99.90
31765;DHT22;18338;53.240;8.798;2024-02-15T06:04:10;11.90;99.90
31765;DHT22;18338;53.240;8.798;2024-02-15T06:06:36;12.00;99.90
31765;DHT22;18338;53.240;8.798;2024-02-15T06:09:04;12.00;99.90
31765;DHT22;18338;53.240;8.798;2024-02-15T06:11:31;12.00;99.90
31765;DHT22;18338;53.240;8.798;2024-02-15T06:13:58;12.00;99.90
31765;DHT22;18338;53.240;8.798;2024-02-15T06:16:25;12.00;99.90
31765;DHT22;18338;53.240;8.798;2024-02-15T06:18:51;12.00;99.90
31765;DHT22;18338;53.240;8.798;2024-02-15T06:21:18;12.00;99.90
31765;DHT22;18338;53.240;8.798;2024-02-15T06:23:47;12.00;99.90
31765;DHT22;18338;53.240;8.798;2024-02-15T06:26:16;11.90;99.90
31765;DHT22;18338;53.240;8.798;2024-02-15T06:28:43;12.00;99.90
31765;DHT22;18338;53.240;8.798;2024-02-15T06:31:29;12.00;99.90
31765;DHT22;18338;53.240;8.798;2024-02-15T06:34:15;12.00;99.90
31765;DHT22;18338;53.240;8.798;2024-02-15T06:37:01;12.00;99.90
31765;DHT22;18338;53.240;8.798;2024-02-15T06:39:46;12.10;99.90
31765;DHT22;18338;53.240;8.798;2024-02-15T06:42:15;12.00;99.90
31765;DHT22;18338;53.240;8.798;2024-02-15T06:44:45;12.00;99.90
31765;DHT22;18338;53.240;8.798;2024-02-15T06:47:12;12.00;99.90
31765;DHT22;18338;53.240;8.798;2024-02-15T06:49:40;12.10;99.90
31765;DHT22;18338;53.240;8.798;2024-02-15T06:52:07;12.00;99.90
31765;DHT22;18338;53.240;8.798;2024-02-15T06:54:35;12.00;99.90
31765;DHT22;18338;53.240;8.798;2024-02-15T06:57:05;12.00;99.90
31765;DHT22;18338;53.240;8.798;2024-02-15T06:59:32;12.00;99.90
31765;DHT22;18338;53.240;8.798;2024-02-15T07:02:00;12.10;99.90
31765;DHT22;18338;53.240;8.798;2024-02-15T07:04:27;12.10;99.90
31765;DHT22;18338;53.240;8.798;2024-02-15T07:06:54;12.10;99.90
31765;DHT22;18338;53.240;8.798;2024-02-15T07:09:22;12.10;99.90
31765;DHT22;18338;53.240;8.798;2024-02-15T07:11:51;12.10;99.90
31765;DHT22;18338;53.240;8.798;2024-02-15T07:14:18;12.20;99.90
31765;DHT22;18338;53.240;8.798;2024-02-15T07:16:47;12.20;99.90
31765;DHT22;18338;53.240;8.798;2024-02-15T07:19:14;12.20;99.90
31765;DHT22;18338;53.240;8.798;2024-02-15T07:21:42;12.20;99.90
31765;DHT22;18338;53.240;8.798;2024-02-15T07:24:09;12.20;99.90
31765;DHT22;18338;53.240;8.798;2024-02-15T07:26:39;12.30;99.90
31765;DHT22;18338;53.240;8.798;2024-02-15T07:29:06;12.30;99.90
31765;DHT22;18338;53.240;8.798;2024-02-15T07:31:35;12.30;99.90
31765;DHT22;18338;53.240;8.798;2024-02-15T07:34:02;12.30;99.90
31765;DHT22;18338;53.240;8.798;2024-02-15T07:36:33;12.30;99.90
31765;DHT22;18338;53.240;8.798;2024-02-15T07:39:00;12.40;99.90
31765;DHT22;18338;53.240;8.798;2024-02-15T07:41:32;12.30;99.90
31765;DHT22;18338;53.240;8.798;2024-02-15T07:44:00;12.40;99.90
31765;DHT22;18338;53.240;8.798;2024-02-15T07:46:28;12.40;99.90
31765;DHT22;18338;53.240;8.798;2024-02-15T07:48:55;12.50;99.90
31765;DHT22;18338;53.240;8.798;2024-02-15T07:51:22;12.40;99.90
31765;DHT22;18338;53.240;8.798;2024-02-15T07:53:50;12.50;99.90
31765;DHT22;18338;53.240;8.798;2024-02-15T07:56:17;12.50;99.90
31765;DHT22;18338;53.240;8.798;2024-02-15T07:58:47;12.50;99.90
31765;DHT22;18338;53.240;8.798;2024-02-15T08:01:19;12.60;99.90
31765;DHT22;18338;53.240;8.798;2024-02-15T08:03:52;12.60;99.90
31765;DHT22;18338;53.240;8.798;2024-02-15T08:06:21;12.60;99.90
31765;DHT22;18338;53.240;8.798;2024-02-15T08:08:52;12.60;99.90
31765;DHT22;18338;53.240;8.798;2024-02-15T08:11:20;12.70;99.90
31765;DHT22;18338;53.240;8.798;2024-02-15T08:13:51;12.80;99.90
31765;DHT22;18338;53.240;8.798;2024-02-15T08:16:22;12.80;99.90
31765;DHT22;18338;53.240;8.798;2024-02-15T08:18:50;12.80;99.90
31765;DHT22;18338;53.240;8.798;2024-02-15T08:21:28;12.70;99.90
31765;DHT22;18338;53.240;8.798;2024-02-15T08:23:56;12.80;99.90
31765;DHT22;18338;53.240;8.798;2024-02-15T08:26:23;12.70;99.90
31765;DHT22;18338;53.240;8.798;2024-02-15T08:28:50;12.80;99.90
31765;DHT22;18338;53.240;8.798;2024-02-15T08:31:16;12.80;99.90
31765;DHT22;18338;53.240;8.798;2024-02-15T08:33:45;12.80;99.90
31765;DHT22;18338;53.240;8.798;2024-02-15T08:36:12;12.90;99.90
31765;DHT22;18338;53.240;8.798;2024-02-15T08:38:43;12.90;99.90
31765;DHT22;18338;53.240;8.798;2024-02-15T08:41:12;12.90;99.90
31765;DHT22;18338;53.240;8.798;2024-02-15T08:43:39;13.00;99.90
31765;DHT22;18338;53.240;8.798;2024-02-15T08:46:07;12.90;99.90
31765;DHT22;18338;53.240;8.798;2024-02-15T08:48:34;13.00;99.90
31765;DHT22;18338;53.240;8.798;2024-02-15T08:51:02;13.00;99.90
31765;DHT22;18338;53.240;8.798;2024-02-15T08:53:30;13.00;99.90
31765;DHT22;18338;53.240;8.798;2024-02-15T08:55:59;13.00;99.90
31765;DHT22;18338;53.240;8.798;2024-02-15T08:58:26;13.00;99.90
31765;DHT22;18338;53.240;8.798;2024-02-15T09:00:53;13.00;99.90
31765;DHT22;18338;53.240;8.798;2024-02-15T09:03:20;13.00;99.90
31765;DHT22;18338;53.240;8.798;2024-02-15T09:05:47;12.90;99.90
31765;DHT22;18338;53.240;8.798;2024-02-15T09:08:15;13.00;99.90
31765;DHT22;18338;53.240;8.798;2024-02-15T09:10:49;13.00;99.90
31765;DHT22;18338;53.240;8.798;2024-02-15T09:13:16;13.00;99.90
31765;DHT22;18338;53.240;8.798;2024-02-15T09:15:43;13.00;99.90
31765;DHT22;18338;53.240;8.798;2024-02-15T09:18:10;13.00;99.90
31765;DHT22;18338;53.240;8.798;2024-02-15T09:20:40;13.00;99.90
31765;DHT22;18338;53.240;8.798;2024-02-15T09:23:11;13.00;99.90
31765;DHT22;18338;53.240;8.798;2024-02-15T09:25:38;13.00;99.90
31765;DHT22;18338;53.240;8.798;2024-02-15T09:28:06;13.00;99.90
31765;DHT22;18338;53.240;8.798;2024-02-15T09:30:32;13.00;99.90
31765;DHT22;18338;53.240;8.798;2024-02-15T09:33:02;13.00;99.90
31765;DHT22;18338;53.240;8.798;2024-02-15T09:35:32;13.00;99.90
31765;DHT22;18338;53.240;8.798;2024-02-15T09:37:59;13.00;99.90
31765;DHT22;18338;53.240;8.798;2024-02-15T09:40:25;13.10;99.90
31765;DHT22;18338;53.240;8.798;2024-02-15T09:42:56;13.10;99.90
31765;DHT22;18338;53.240;8.798;2024-02-15T09:45:22;13.10;99.90
31765;DHT22;18338;53.240;8.798;2024-02-15T09:47:51;13.10;99.90
31765;DHT22;18338;53.240;8.798;2024-02-15T09:50:20;13.10;99.90
31765;DHT22;18338;53.240;8.798;2024-02-15T09:52:52;13.10;99.90
31765;DHT22;18338;53.240;8.798;2024-02-15T09:55:20;13.00;99.90
31765;DHT22;18338;53.240;8.798;2024-02-15T09:57:50;13.00;99.90
31765;DHT22;18338;53.240;8.798;2024-02-15T10:00:17;13.00;99.90
31765;DHT22;18338;53.240;8.798;2024-02-15T10:02:49;13.00;99.90
31765;DHT22;18338;53.240;8.798;2024-02-15T10:05:17;12.90;99.90
31765;DHT22;18338;53.240;8.798;2024-02-15T10:07:45;12.90;99.90
31765;DHT22;18338;53.240;8.798;2024-02-15T10:10:20;12.80;99.90
31765;DHT22;18338;53.240;8.798;2024-02-15T10:12:52;12.90;99.90
31765;DHT22;18338;53.240;8.798;2024-02-15T10:15:40;12.90;99.90
31765;DHT22;18338;53.240;8.798;2024-02-15T10:18:11;12.90;99.90
31765;DHT22;18338;53.240;8.798;2024-02-15T10:20:40;12.80;99.90
31765;DHT22;18338;53.240;8.798;2024-02-15T10:23:12;12.90;99.90
31765;DHT22;18338;53.240;8.798;2024-02-15T10:25:40;12.90;99.90
31765;DHT22;18338;53.240;8.798;2024-02-15T10:28:12;12.90;99.90
31765;DHT22;18338;53.240;8.798;2024-02-15T10:30:43;12.90;99.90
31765;DHT22;18338;53.240;8.798;2024-02-15T10:33:38;12.90;99.90
31765;DHT22;18338;53.240;8.798;2024-02-15T10:36:08;12.90;99.90
31765;DHT22;18338;53.240;8.798;2024-02-15T10:38:35;13.00;99.90
31765;DHT22;18338;53.240;8.798;2024-02-15T10:41:06;12.90;99.90
31765;DHT22;18338;53.240;8.798;2024-02-15T10:43:34;12.90;99.90
31765;DHT22;18338;53.240;8.798;2024-02-15T10:46:01;12.90;99.90
31765;DHT22;18338;53.240;8.798;2024-02-15T10:48:29;12.90;99.90
31765;DHT22;18338;53.240;8.798;2024-02-15T10:50:58;12.90;99.90
31765;DHT22;18338;53.240;8.798;2024-02-15T10:53:31;13.00;99.90
31765;DHT22;18338;53.240;8.798;2024-02-15T10:56:17;13.00;99.90
31765;DHT22;18338;53.240;8.798;2024-02-15T10:59:18;12.90;99.90
31765;DHT22;18338;53.240;8.798;2024-02-15T11:01:49;13.00;99.90
31765;DHT22;18338;53.240;8.798;2024-02-15T11:04:20;13.00;99.90
31765;DHT22;18338;53.240;8.798;2024-02-15T11:06:50;13.00;99.90
31765;DHT22;18338;53.240;8.798;2024-02-15T11:09:17;13.00;99.90
31765;DHT22;18338;53.240;8.798;2024-02-15T11:11:46;13.00;99.90
31765;DHT22;18338;53.240;8.798;2024-02-15T11:14:27;12.90;99.90
31765;DHT22;18338;53.240;8.798;2024-02-15T11:16:59;12.90;99.90
31765;DHT22;18338;53.240;8.798;2024-02-15T11:21:59;12.90;99.90
31765;DHT22;18338;53.240;8.798;2024-02-15T11:24:31;12.90;99.90
31765;DHT22;18338;53.240;8.798;2024-02-15T11:27:05;12.90;99.90
31765;DHT22;18338;53.240;8.798;2024-02-15T11:29:52;12.90;99.90
31765;DHT22;18338;53.240;8.798;2024-02-15T11:35:18;12.90;99.90
31765;DHT22;18338;53.240;8.798;2024-02-15T11:40:22;12.90;99.90
31765;DHT22;18338;53.240;8.798;2024-02-15T11:42:57;13.00;99.90
31765;DHT22;18338;53.240;8.798;2024-02-15T11:45:29;12.90;99.90
31765;DHT22;18338;53.240;8.798;2024-02-15T11:48:00;13.00;99.90
31765;DHT22;18338;53.240;8.798;2024-02-15T11:50:28;13.00;99.90
31765;DHT22;18338;53.240;8.798;2024-02-15T11:53:07;13.00;99.90
31765;DHT22;18338;53.240;8.798;2024-02-15T11:55:39;13.10;99.90
31765;DHT22;18338;53.240;8.798;2024-02-15T11:58:07;13.00;99.90
31765;DHT22;18338;53.240;8.798;2024-02-15T12:00:39;13.00;99.90
31765;DHT22;18338;53.240;8.798;2024-02-15T12:03:25;13.00;99.90
31765;DHT22;18338;53.240;8.798;2024-02-15T12:06:17;13.00;99.90
31765;DHT22;18338;53.240;8.798;2024-02-15T12:09:03;13.10;99.90
31765;DHT22;18338;53.240;8.798;2024-02-15T12:11:57;13.10;99.90
31765;DHT22;18338;53.240;8.798;2024-02-15T12:14:44;13.10;99.90
31765;DHT22;18338;53.240;8.798;2024-02-15T12:17:29;13.10;99.90
31765;DHT22;18338;53.240;8.798;2024-02-15T12:20:15;13.10;99.90
31765;DHT22;18338;53.240;8.798;2024-02-15T12:22:44;13.20;99.90
31765;DHT22;18338;53.240;8.798;2024-02-15T12:25:18;13.20;99.90
31765;DHT22;18338;53.240;8.798;2024-02-15T12:27:59;13.20;99.90
31765;DHT22;18338;53.240;8.798;2024-02-15T12:30:32;13.10;99.90
31765;DHT22;18338;53.240;8.798;2024-02-15T12:33:12;13.10;99.90
31765;DHT22;18338;53.240;8.798;2024-02-15T12:35:40;13.20;99.90
31765;DHT22;18338;53.240;8.798;2024-02-15T12:38:09;13.20;99.90
31765;DHT22;18338;53.240;8.798;2024-02-15T12:40:36;13.20;99.90
31765;DHT22;18338;53.240;8.798;2024-02-15T12:43:05;13.20;99.90
31765;DHT22;18338;53.240;8.798;2024-02-15T12:45:36;13.10;99.90
31765;DHT22;18338;53.240;8.798;2024-02-15T12:48:04;13.10;99.90
31765;DHT22;18338;53.240;8.798;2024-02-15T12:50:33;13.10;99.90
31765;DHT22;18338;53.240;8.798;2024-02-15T12:53:01;13.10;99.90
31765;DHT22;18338;53.240;8.798;2024-02-15T12:55:34;13.10;99.90
31765;DHT22;18338;53.240;8.798;2024-02-15T12:58:03;13.10;99.90
31765;DHT22;18338;53.240;8.798;2024-02-15T13:00:31;13.10;99.90
31765;DHT22;18338;53.240;8.798;2024-02-15T13:03:02;13.10;99.90
31765;DHT22;18338;53.240;8.798;2024-02-15T13:05:31;13.10;99.90
31765;DHT22;18338;53.240;8.798;2024-02-15T13:07:59;13.10;99.90
31765;DHT22;18338;53.240;8.798;2024-02-15T13:10:28;13.10;99.90
31765;DHT22;18338;53.240;8.798;2024-02-15T13:12:56;13.00;99.90
31765;DHT22;18338;53.240;8.798;2024-02-15T13:15:23;13.10;99.90
31765;DHT22;18338;53.240;8.798;2024-02-15T13:17:54;13.10;99.90
31765;DHT22;18338;53.240;8.798;2024-02-15T13:20:26;13.10;99.90
31765;DHT22;18338;53.240;8.798;2024-02-15T13:23:01;13.10;99.90
31765;DHT22;18338;53.240;8.798;2024-02-15T13:25:29;13.10;99.90
31765;DHT22;18338;53.240;8.798;2024-02-15T13:27:56;13.10;99.90
31765;DHT22;18338;53.240;8.798;2024-02-15T13:30:26;13.10;99.90
31765;DHT22;18338;53.240;8.798;2024-02-15T13:32:56;13.10;99.90
31765;DHT22;18338;53.240;8.798;2024-02-15T13:35:28;13.10;99.90
31765;DHT22;18338;53.240;8.798;2024-02-15T13:37:57;13.00;99.90
31765;DHT22;18338;53.240;8.798;2024-02-15T13:40:26;13.00;99.90
31765;DHT22;18338;53.240;8.798;2024-02-15T13:42:56;13.00;99.90
31765;DHT22;18338;53.240;8.798;2024-02-15T13:45:29;13.00;99.90
31765;DHT22;18338;53.240;8.798;2024-02-15T13:47:57;13.00;99.90
31765;DHT22;18338;53.240;8.798;2024-02-15T13:50:24;13.00;99.90
31765;DHT22;18338;53.240;8.798;2024-02-15T13:52:51;13.00;99.90
31765;DHT22;18338;53.240;8.798;2024-02-15T13:55:18;13.00;99.90
31765;DHT22;18338;53.240;8.798;2024-02-15T13:57:47;13.00;99.90
31765;DHT22;18338;53.240;8.798;2024-02-15T14:00:16;13.10;99.90
31765;DHT22;18338;53.240;8.798;2024-02-15T14:02:49;13.10;99.90
31765;DHT22;18338;53.240;8.798;2024-02-15T14:05:17;13.10;99.90
31765;DHT22;18338;53.240;8.798;2024-02-15T14:07:48;13.10;99.90
31765;DHT22;18338;53.240;8.798;2024-02-15T14:10:16;13.10;99.90
31765;DHT22;18338;53.240;8.798;2024-02-15T14:12:45;13.20;99.90
31765;DHT22;18338;53.240;8.798;2024-02-15T14:15:12;13.10;99.90
31765;DHT22;18338;53.240;8.798;2024-02-15T14:17:40;13.10;99.90
31765;DHT22;18338;53.240;8.798;2024-02-15T14:20:07;13.10;99.90
31765;DHT22;18338;53.240;8.798;2024-02-15T14:22:44;13.10;99.90
31765;DHT22;18338;53.240;8.798;2024-02-15T14:25:11;13.10;99.90
31765;DHT22;18338;53.240;8.798;2024-02-15T14:27:39;13.10;99.90
31765;DHT22;18338;53.240;8.798;2024-02-15T14:30:07;13.10;99.90
31765;DHT22;18338;53.240;8.798;2024-02-15T14:32:52;13.10;99.90
31765;DHT22;18338;53.240;8.798;2024-02-15T14:35:33;13.10;99.90
31765;DHT22;18338;53.240;8.798;2024-02-15T14:38:12;13.00;99.90
31765;DHT22;18338;53.240;8.798;2024-02-15T14:40:43;13.00;99.90
31765;DHT22;18338;53.240;8.798;2024-02-15T14:43:12;13.00;99.90
31765;DHT22;18338;53.240;8.798;2024-02-15T14:45:45;13.00;99.90
31765;DHT22;18338;53.240;8.798;2024-02-15T14:48:12;13.00;99.90
31765;DHT22;18338;53.240;8.798;2024-02-15T14:50:42;13.10;99.90
31765;DHT22;18338;53.240;8.798;2024-02-15T14:53:08;13.10;99.90
31765;DHT22;18338;53.240;8.798;2024-02-15T14:55:36;13.10;99.90
31765;DHT22;18338;53.240;8.798;2024-02-15T14:58:06;13.10;99.90
31765;DHT22;18338;53.240;8.798;2024-02-15T15:00:39;13.00;99.90
31765;DHT22;18338;53.240;8.798;2024-02-15T15:03:08;13.00;99.90
31765;DHT22;18338;53.240;8.798;2024-02-15T15:05:35;13.00;99.90
31765;DHT22;18338;53.240;8.798;2024-02-15T15:08:20;13.00;99.90
31765;DHT22;18338;53.240;8.798;2024-02-15T15:11:06;13.00;99.90
31765;DHT22;18338;53.240;8.798;2024-02-15T15:13:52;13.00;99.90
31765;DHT22;18338;53.240;8.798;2024-02-15T15:16:19;12.90;99.90
31765;DHT22;18338;53.240;8.798;2024-02-15T15:18:48;12.90;99.90
31765;DHT22;18338;53.240;8.798;2024-02-15T15:21:16;12.90;99.90
31765;DHT22;18338;53.240;8.798;2024-02-15T15:23:43;12.90;99.90
31765;DHT22;18338;53.240;8.798;2024-02-15T15:26:11;12.90;99.90
31765;DHT22;18338;53.240;8.798;2024-02-15T15:28:38;12.90;99.90
31765;DHT22;18338;53.240;8.798;2024-02-15T15:31:05;12.90;99.90
31765;DHT22;18338;53.240;8.798;2024-02-15T15:33:33;13.00;99.90
31765;DHT22;18338;53.240;8.798;2024-02-15T15:36:01;13.00;99.90
31765;DHT22;18338;53.240;8.798;2024-02-15T15:38:28;13.00;99.90
31765;DHT22;18338;53.240;8.798;2024-02-15T15:40:55;13.00;99.90
31765;DHT22;18338;53.240;8.798;2024-02-15T15:43:22;13.00;99.90
31765;DHT22;18338;53.240;8.798;2024-02-15T15:45:49;12.90;99.90
31765;DHT22;18338;53.240;8.798;2024-02-15T15:48:19;13.00;99.90
31765;DHT22;18338;53.240;8.798;2024-02-15T15:50:46;13.00;99.90
31765;DHT22;18338;53.240;8.798;2024-02-15T15:53:15;13.00;99.90
31765;DHT22;18338;53.240;8.798;2024-02-15T15:55:41;13.00;99.90
31765;DHT22;18338;53.240;8.798;2024-02-15T15:58:08;13.00;99.90